sensor_id;sensor_type;location;lat;lon;timestamp;P1;durP1;ratioP1;P2;durP2;ratioP2
37647;SDS011;23490;53.656;10.076;2022-09-09T00:00:40;90.82;;;31.17;;
37647;SDS011;23490;53.656;10.076;2022-09-09T00:06:19;83.85;;;31.80;;
37647;SDS011;23490;53.656;10.076;2022-09-09T00:09:02;84.63;;;31.60;;
37647;SDS011;23490;53.656;10.076;2022-09-09T00:11:40;83.65;;;31.08;;
37647;SDS011;23490;53.656;10.076;2022-09-09T00:14:25;82.00;;;32.00;;
37647;SDS011;23490;53.656;10.076;2022-09-09T00:17:01;139.52;;;34.42;;
37647;SDS011;23490;53.656;10.076;2022-09-09T00:22:08;212.88;;;36.38;;
37647;SDS011;23490;53.656;10.076;2022-09-09T00:24:43;120.55;;;33.53;;
37647;SDS011;23490;53.656;10.076;2022-09-09T00:27:14;164.15;;;36.38;;
37647;SDS011;23490;53.656;10.076;2022-09-09T00:29:47;104.03;;;34.17;;
37647;SDS011;23490;53.656;10.076;2022-09-09T00:32:16;127.97;;;34.28;;
37647;SDS011;23490;53.656;10.076;2022-09-09T00:34:47;183.52;;;36.35;;
37647;SDS011;23490;53.656;10.076;2022-09-09T00:37:21;123.13;;;34.10;;
37647;SDS011;23490;53.656;10.076;2022-09-09T00:39:50;112.05;;;34.90;;
37647;SDS011;23490;53.656;10.076;2022-09-09T00:42:26;114.03;;;34.37;;
37647;SDS011;23490;53.656;10.076;2022-09-09T00:45:19;105.07;;;35.25;;
37647;SDS011;23490;53.656;10.076;2022-09-09T00:48:00;99.63;;;34.63;;
37647;SDS011;23490;53.656;10.076;2022-09-09T00:50:53;123.70;;;35.88;;
37647;SDS011;23490;53.656;10.076;2022-09-09T01:01:49;119.03;;;35.13;;
37647;SDS011;23490;53.656;10.076;2022-09-09T01:04:18;101.47;;;36.47;;
37647;SDS011;23490;53.656;10.076;2022-09-09T01:06:56;90.95;;;31.92;;
37647;SDS011;23490;53.656;10.076;2022-09-09T01:09:41;104.28;;;34.08;;
37647;SDS011;23490;53.656;10.076;2022-09-09T01:14:40;106.25;;;33.88;;
37647;SDS011;23490;53.656;10.076;2022-09-09T01:17:14;77.93;;;30.65;;
37647;SDS011;23490;53.656;10.076;2022-09-09T01:27:43;84.72;;;29.77;;
37647;SDS011;23490;53.656;10.076;2022-09-09T01:30:12;68.28;;;27.52;;
37647;SDS011;23490;53.656;10.076;2022-09-09T01:32:41;70.45;;;28.70;;
37647;SDS011;23490;53.656;10.076;2022-09-09T01:35:15;65.93;;;28.50;;
37647;SDS011;23490;53.656;10.076;2022-09-09T01:37:48;65.05;;;27.42;;
37647;SDS011;23490;53.656;10.076;2022-09-09T01:40:13;62.40;;;26.63;;
37647;SDS011;23490;53.656;10.076;2022-09-09T01:42:38;61.72;;;26.67;;
37647;SDS011;23490;53.656;10.076;2022-09-09T01:45:04;56.50;;;25.05;;
37647;SDS011;23490;53.656;10.076;2022-09-09T01:47:30;57.97;;;24.98;;
37647;SDS011;23490;53.656;10.076;2022-09-09T01:49:55;53.50;;;24.00;;
37647;SDS011;23490;53.656;10.076;2022-09-09T01:52:20;48.60;;;24.88;;
37647;SDS011;23490;53.656;10.076;2022-09-09T01:54:46;55.08;;;24.50;;
37647;SDS011;23490;53.656;10.076;2022-09-09T01:57:15;50.17;;;24.35;;
37647;SDS011;23490;53.656;10.076;2022-09-09T02:07:43;58.70;;;24.30;;
37647;SDS011;23490;53.656;10.076;2022-09-09T02:10:23;54.42;;;24.00;;
37647;SDS011;23490;53.656;10.076;2022-09-09T02:13:11;62.53;;;23.58;;
37647;SDS011;23490;53.656;10.076;2022-09-09T02:16:00;52.65;;;23.92;;
37647;SDS011;23490;53.656;10.076;2022-09-09T02:21:56;57.13;;;24.33;;
37647;SDS011;23490;53.656;10.076;2022-09-09T02:24:24;53.95;;;25.33;;
37647;SDS011;23490;53.656;10.076;2022-09-09T02:26:51;49.85;;;24.55;;
37647;SDS011;23490;53.656;10.076;2022-09-09T02:29:29;60.15;;;23.98;;
37647;SDS011;23490;53.656;10.076;2022-09-09T02:31:58;57.75;;;23.08;;
37647;SDS011;23490;53.656;10.076;2022-09-09T02:34:29;53.42;;;22.63;;
37647;SDS011;23490;53.656;10.076;2022-09-09T02:36:58;58.80;;;23.92;;
37647;SDS011;23490;53.656;10.076;2022-09-09T02:39:26;60.88;;;24.13;;
37647;SDS011;23490;53.656;10.076;2022-09-09T02:41:51;50.13;;;23.38;;
37647;SDS011;23490;53.656;10.076;2022-09-09T02:44:18;56.38;;;24.15;;
37647;SDS011;23490;53.656;10.076;2022-09-09T02:49:09;58.10;;;24.98;;
37647;SDS011;23490;53.656;10.076;2022-09-09T02:51:51;52.33;;;23.35;;
37647;SDS011;23490;53.656;10.076;2022-09-09T02:54:30;86.40;;;23.85;;
37647;SDS011;23490;53.656;10.076;2022-09-09T02:57:04;65.20;;;24.67;;
37647;SDS011;23490;53.656;10.076;2022-09-09T02:59:35;51.85;;;24.38;;
37647;SDS011;23490;53.656;10.076;2022-09-09T03:02:01;56.88;;;24.75;;
37647;SDS011;23490;53.656;10.076;2022-09-09T03:04:26;53.75;;;23.42;;
37647;SDS011;23490;53.656;10.076;2022-09-09T03:06:52;54.22;;;23.73;;
37647;SDS011;23490;53.656;10.076;2022-09-09T03:09:17;53.85;;;24.27;;
37647;SDS011;23490;53.656;10.076;2022-09-09T03:11:42;50.42;;;25.23;;
37647;SDS011;23490;53.656;10.076;2022-09-09T03:14:08;46.92;;;23.95;;
37647;SDS011;23490;53.656;10.076;2022-09-09T03:16:33;57.55;;;24.83;;
37647;SDS011;23490;53.656;10.076;2022-09-09T03:19:00;56.72;;;25.30;;
37647;SDS011;23490;53.656;10.076;2022-09-09T03:21:26;52.25;;;24.35;;
37647;SDS011;23490;53.656;10.076;2022-09-09T03:23:51;54.75;;;25.02;;
37647;SDS011;23490;53.656;10.076;2022-09-09T03:26:17;56.58;;;25.00;;
37647;SDS011;23490;53.656;10.076;2022-09-09T03:28:42;51.10;;;24.65;;
37647;SDS011;23490;53.656;10.076;2022-09-09T03:31:09;46.58;;;23.10;;
37647;SDS011;23490;53.656;10.076;2022-09-09T03:33:36;49.38;;;23.95;;
37647;SDS011;23490;53.656;10.076;2022-09-09T03:36:02;42.65;;;23.17;;
37647;SDS011;23490;53.656;10.076;2022-09-09T03:38:28;46.47;;;23.50;;
37647;SDS011;23490;53.656;10.076;2022-09-09T03:40:54;49.40;;;24.38;;
37647;SDS011;23490;53.656;10.076;2022-09-09T03:43:22;46.63;;;24.35;;
37647;SDS011;23490;53.656;10.076;2022-09-09T03:45:48;46.38;;;23.63;;
37647;SDS011;23490;53.656;10.076;2022-09-09T03:48:14;42.85;;;22.65;;
37647;SDS011;23490;53.656;10.076;2022-09-09T03:50:44;41.72;;;23.95;;
37647;SDS011;23490;53.656;10.076;2022-09-09T03:53:12;44.38;;;23.00;;
37647;SDS011;23490;53.656;10.076;2022-09-09T03:55:39;45.53;;;23.73;;
37647;SDS011;23490;53.656;10.076;2022-09-09T03:58:06;39.45;;;22.63;;
37647;SDS011;23490;53.656;10.076;2022-09-09T04:00:32;40.63;;;21.92;;
37647;SDS011;23490;53.656;10.076;2022-09-09T04:02:57;37.58;;;22.02;;
37647;SDS011;23490;53.656;10.076;2022-09-09T04:05:23;34.92;;;20.42;;
37647;SDS011;23490;53.656;10.076;2022-09-09T04:07:49;38.13;;;20.85;;
37647;SDS011;23490;53.656;10.076;2022-09-09T04:10:14;40.85;;;22.05;;
37647;SDS011;23490;53.656;10.076;2022-09-09T04:12:40;42.95;;;23.52;;
37647;SDS011;23490;53.656;10.076;2022-09-09T04:15:06;46.10;;;23.25;;
37647;SDS011;23490;53.656;10.076;2022-09-09T04:17:32;41.92;;;22.38;;
37647;SDS011;23490;53.656;10.076;2022-09-09T04:19:58;43.75;;;22.92;;
37647;SDS011;23490;53.656;10.076;2022-09-09T04:22:23;42.47;;;23.15;;
37647;SDS011;23490;53.656;10.076;2022-09-09T04:24:48;37.70;;;21.35;;
37647;SDS011;23490;53.656;10.076;2022-09-09T04:27:14;43.30;;;21.98;;
37647;SDS011;23490;53.656;10.076;2022-09-09T04:29:39;43.58;;;22.33;;
37647;SDS011;23490;53.656;10.076;2022-09-09T04:32:04;39.28;;;22.00;;
37647;SDS011;23490;53.656;10.076;2022-09-09T04:34:30;37.42;;;21.27;;
37647;SDS011;23490;53.656;10.076;2022-09-09T04:36:56;35.70;;;21.65;;
37647;SDS011;23490;53.656;10.076;2022-09-09T04:39:21;38.00;;;22.52;;
37647;SDS011;23490;53.656;10.076;2022-09-09T04:41:47;35.35;;;20.80;;
37647;SDS011;23490;53.656;10.076;2022-09-09T04:44:12;39.95;;;21.83;;
37647;SDS011;23490;53.656;10.076;2022-09-09T04:46:38;35.78;;;20.38;;
37647;SDS011;23490;53.656;10.076;2022-09-09T04:49:03;36.30;;;20.67;;
37647;SDS011;23490;53.656;10.076;2022-09-09T04:51:29;30.98;;;20.10;;
37647;SDS011;23490;53.656;10.076;2022-09-09T04:53:56;32.83;;;19.10;;
37647;SDS011;23490;53.656;10.076;2022-09-09T04:56:21;30.10;;;18.95;;
37647;SDS011;23490;53.656;10.076;2022-09-09T04:58:46;33.22;;;19.75;;
37647;SDS011;23490;53.656;10.076;2022-09-09T05:01:13;28.83;;;19.05;;
37647;SDS011;23490;53.656;10.076;2022-09-09T05:03:42;30.35;;;18.10;;
37647;SDS011;23490;53.656;10.076;2022-09-09T05:06:08;26.98;;;17.52;;
37647;SDS011;23490;53.656;10.076;2022-09-09T05:08:36;28.23;;;17.48;;
37647;SDS011;23490;53.656;10.076;2022-09-09T05:11:21;28.20;;;17.13;;
37647;SDS011;23490;53.656;10.076;2022-09-09T05:13:49;25.48;;;16.17;;
37647;SDS011;23490;53.656;10.076;2022-09-09T05:16:15;24.55;;;17.13;;
37647;SDS011;23490;53.656;10.076;2022-09-09T05:18:42;24.48;;;15.35;;
37647;SDS011;23490;53.656;10.076;2022-09-09T05:21:08;23.25;;;15.10;;
37647;SDS011;23490;53.656;10.076;2022-09-09T05:23:35;24.17;;;15.15;;
37647;SDS011;23490;53.656;10.076;2022-09-09T05:26:01;23.90;;;16.52;;
37647;SDS011;23490;53.656;10.076;2022-09-09T05:28:28;22.90;;;14.77;;
37647;SDS011;23490;53.656;10.076;2022-09-09T05:31:01;24.23;;;15.23;;
37647;SDS011;23490;53.656;10.076;2022-09-09T05:33:33;27.33;;;15.55;;
37647;SDS011;23490;53.656;10.076;2022-09-09T05:36:00;20.45;;;14.55;;
37647;SDS011;23490;53.656;10.076;2022-09-09T05:38:27;19.85;;;14.02;;
37647;SDS011;23490;53.656;10.076;2022-09-09T05:40:54;20.33;;;14.48;;
37647;SDS011;23490;53.656;10.076;2022-09-09T05:43:20;21.70;;;14.68;;
37647;SDS011;23490;53.656;10.076;2022-09-09T05:45:46;21.08;;;14.20;;
37647;SDS011;23490;53.656;10.076;2022-09-09T05:48:13;23.77;;;14.00;;
37647;SDS011;23490;53.656;10.076;2022-09-09T05:50:41;22.40;;;14.35;;
37647;SDS011;23490;53.656;10.076;2022-09-09T05:53:07;21.38;;;13.80;;
37647;SDS011;23490;53.656;10.076;2022-09-09T05:55:33;19.65;;;12.48;;
37647;SDS011;23490;53.656;10.076;2022-09-09T05:57:59;18.27;;;12.77;;
37647;SDS011;23490;53.656;10.076;2022-09-09T06:00:24;20.02;;;13.57;;
37647;SDS011;23490;53.656;10.076;2022-09-09T06:02:51;18.77;;;12.98;;
37647;SDS011;23490;53.656;10.076;2022-09-09T06:05:17;17.45;;;12.77;;
37647;SDS011;23490;53.656;10.076;2022-09-09T06:07:44;17.23;;;12.48;;
37647;SDS011;23490;53.656;10.076;2022-09-09T06:10:10;18.52;;;12.48;;
37647;SDS011;23490;53.656;10.076;2022-09-09T06:12:38;16.17;;;11.60;;
37647;SDS011;23490;53.656;10.076;2022-09-09T06:15:04;19.00;;;11.95;;
37647;SDS011;23490;53.656;10.076;2022-09-09T06:17:30;16.52;;;11.40;;
37647;SDS011;23490;53.656;10.076;2022-09-09T06:19:56;16.13;;;11.65;;
37647;SDS011;23490;53.656;10.076;2022-09-09T06:22:22;19.30;;;10.80;;
37647;SDS011;23490;53.656;10.076;2022-09-09T06:24:47;14.50;;;10.43;;
37647;SDS011;23490;53.656;10.076;2022-09-09T06:27:13;13.75;;;10.30;;
37647;SDS011;23490;53.656;10.076;2022-09-09T06:29:38;12.93;;;9.13;;
37647;SDS011;23490;53.656;10.076;2022-09-09T06:32:04;13.35;;;9.32;;
37647;SDS011;23490;53.656;10.076;2022-09-09T06:34:29;12.18;;;9.23;;
37647;SDS011;23490;53.656;10.076;2022-09-09T06:36:55;13.85;;;8.73;;
37647;SDS011;23490;53.656;10.076;2022-09-09T06:39:22;14.20;;;9.52;;
37647;SDS011;23490;53.656;10.076;2022-09-09T06:41:48;14.80;;;9.30;;
37647;SDS011;23490;53.656;10.076;2022-09-09T06:44:14;16.08;;;9.68;;
37647;SDS011;23490;53.656;10.076;2022-09-09T06:46:40;16.42;;;9.48;;
37647;SDS011;23490;53.656;10.076;2022-09-09T06:49:07;12.13;;;8.32;;
37647;SDS011;23490;53.656;10.076;2022-09-09T06:51:34;12.50;;;9.18;;
37647;SDS011;23490;53.656;10.076;2022-09-09T06:54:01;14.60;;;8.95;;
37647;SDS011;23490;53.656;10.076;2022-09-09T06:56:28;11.70;;;8.35;;
37647;SDS011;23490;53.656;10.076;2022-09-09T06:58:59;13.77;;;9.90;;
37647;SDS011;23490;53.656;10.076;2022-09-09T07:01:28;13.27;;;9.63;;
37647;SDS011;23490;53.656;10.076;2022-09-09T07:03:56;15.73;;;9.18;;
37647;SDS011;23490;53.656;10.076;2022-09-09T07:06:45;12.48;;;9.20;;
37647;SDS011;23490;53.656;10.076;2022-09-09T07:09:11;12.98;;;9.57;;
37647;SDS011;23490;53.656;10.076;2022-09-09T07:11:39;12.25;;;8.85;;
37647;SDS011;23490;53.656;10.076;2022-09-09T07:14:06;11.48;;;8.65;;
37647;SDS011;23490;53.656;10.076;2022-09-09T07:16:32;15.32;;;9.10;;
37647;SDS011;23490;53.656;10.076;2022-09-09T07:18:58;13.98;;;8.25;;
37647;SDS011;23490;53.656;10.076;2022-09-09T07:21:24;12.40;;;7.93;;
37647;SDS011;23490;53.656;10.076;2022-09-09T07:26:20;16.20;;;8.55;;
37647;SDS011;23490;53.656;10.076;2022-09-09T07:28:48;13.13;;;8.65;;
37647;SDS011;23490;53.656;10.076;2022-09-09T07:31:15;13.57;;;7.95;;
37647;SDS011;23490;53.656;10.076;2022-09-09T07:33:45;12.23;;;8.88;;
37647;SDS011;23490;53.656;10.076;2022-09-09T07:36:13;11.13;;;7.32;;
37647;SDS011;23490;53.656;10.076;2022-09-09T07:38:58;9.15;;;5.93;;
37647;SDS011;23490;53.656;10.076;2022-09-09T07:41:30;10.77;;;6.10;;
37647;SDS011;23490;53.656;10.076;2022-09-09T07:46:29;11.40;;;6.13;;
37647;SDS011;23490;53.656;10.076;2022-09-09T07:48:55;9.75;;;6.65;;
37647;SDS011;23490;53.656;10.076;2022-09-09T07:51:25;7.88;;;5.60;;
37647;SDS011;23490;53.656;10.076;2022-09-09T07:53:53;8.55;;;5.97;;
37647;SDS011;23490;53.656;10.076;2022-09-09T07:56:20;10.23;;;6.25;;
37647;SDS011;23490;53.656;10.076;2022-09-09T07:58:49;10.65;;;5.85;;
37647;SDS011;23490;53.656;10.076;2022-09-09T08:01:19;7.93;;;4.93;;
37647;SDS011;23490;53.656;10.076;2022-09-09T08:03:54;10.27;;;5.78;;
37647;SDS011;23490;53.656;10.076;2022-09-09T08:06:24;9.40;;;5.25;;
37647;SDS011;23490;53.656;10.076;2022-09-09T08:08:51;12.70;;;5.28;;
37647;SDS011;23490;53.656;10.076;2022-09-09T08:11:17;8.82;;;5.32;;
37647;SDS011;23490;53.656;10.076;2022-09-09T08:13:43;10.20;;;5.43;;
37647;SDS011;23490;53.656;10.076;2022-09-09T08:16:14;10.60;;;5.53;;
37647;SDS011;23490;53.656;10.076;2022-09-09T08:18:46;11.30;;;5.60;;
37647;SDS011;23490;53.656;10.076;2022-09-09T08:21:17;9.02;;;5.38;;
37647;SDS011;23490;53.656;10.076;2022-09-09T08:23:45;7.75;;;4.70;;
37647;SDS011;23490;53.656;10.076;2022-09-09T08:26:13;10.45;;;5.50;;
37647;SDS011;23490;53.656;10.076;2022-09-09T08:28:41;9.35;;;5.15;;
37647;SDS011;23490;53.656;10.076;2022-09-09T08:31:15;8.77;;;4.72;;
37647;SDS011;23490;53.656;10.076;2022-09-09T08:33:42;9.32;;;4.43;;
37647;SDS011;23490;53.656;10.076;2022-09-09T08:36:10;10.15;;;5.20;;
37647;SDS011;23490;53.656;10.076;2022-09-09T08:38:39;7.05;;;4.43;;
37647;SDS011;23490;53.656;10.076;2022-09-09T08:44:28;8.38;;;4.80;;
37647;SDS011;23490;53.656;10.076;2022-09-09T08:55:26;6.13;;;3.20;;
37647;SDS011;23490;53.656;10.076;2022-09-09T08:58:00;5.97;;;3.22;;
37647;SDS011;23490;53.656;10.076;2022-09-09T09:00:37;7.13;;;3.40;;
37647;SDS011;23490;53.656;10.076;2022-09-09T09:03:16;4.97;;;3.08;;
37647;SDS011;23490;53.656;10.076;2022-09-09T09:05:59;8.85;;;3.75;;
37647;SDS011;23490;53.656;10.076;2022-09-09T09:08:44;7.18;;;3.33;;
37647;SDS011;23490;53.656;10.076;2022-09-09T09:11:18;7.15;;;3.42;;
37647;SDS011;23490;53.656;10.076;2022-09-09T09:13:45;5.88;;;3.22;;
37647;SDS011;23490;53.656;10.076;2022-09-09T09:18:57;6.22;;;3.25;;
37647;SDS011;23490;53.656;10.076;2022-09-09T09:21:28;6.32;;;3.28;;
37647;SDS011;23490;53.656;10.076;2022-09-09T09:24:01;8.80;;;3.35;;
37647;SDS011;23490;53.656;10.076;2022-09-09T09:26:34;8.48;;;3.10;;
37647;SDS011;23490;53.656;10.076;2022-09-09T09:29:00;4.53;;;3.00;;
37647;SDS011;23490;53.656;10.076;2022-09-09T09:31:34;4.75;;;3.22;;
37647;SDS011;23490;53.656;10.076;2022-09-09T09:34:00;7.13;;;2.90;;
37647;SDS011;23490;53.656;10.076;2022-09-09T09:36:33;6.65;;;3.17;;
37647;SDS011;23490;53.656;10.076;2022-09-09T09:39:03;7.45;;;3.17;;
37647;SDS011;23490;53.656;10.076;2022-09-09T09:44:04;4.53;;;2.20;;
37647;SDS011;23490;53.656;10.076;2022-09-09T09:46:32;6.10;;;2.95;;
37647;SDS011;23490;53.656;10.076;2022-09-09T09:49:01;6.90;;;3.42;;
37647;SDS011;23490;53.656;10.076;2022-09-09T09:51:29;6.47;;;2.60;;
37647;SDS011;23490;53.656;10.076;2022-09-09T09:54:04;4.95;;;3.05;;
37647;SDS011;23490;53.656;10.076;2022-09-09T09:56:38;11.32;;;3.10;;
37647;SDS011;23490;53.656;10.076;2022-09-09T09:59:05;8.27;;;2.83;;
37647;SDS011;23490;53.656;10.076;2022-09-09T10:01:44;4.78;;;2.28;;
37647;SDS011;23490;53.656;10.076;2022-09-09T10:06:43;5.70;;;2.50;;
37647;SDS011;23490;53.656;10.076;2022-09-09T10:20:41;7.78;;;2.10;;
37647;SDS011;23490;53.656;10.076;2022-09-09T10:22:45;3.53;;;1.55;;
37647;SDS011;23490;53.656;10.076;2022-09-09T10:28:00;3.50;;;1.30;;
37647;SDS011;23490;53.656;10.076;2022-09-09T10:33:33;2.35;;;1.00;;
37647;SDS011;23490;53.656;10.076;2022-09-09T10:41:31;4.05;;;1.30;;
37647;SDS011;23490;53.656;10.076;2022-09-09T10:44:22;4.55;;;1.45;;
37647;SDS011;23490;53.656;10.076;2022-09-09T10:47:23;3.63;;;1.30;;
37647;SDS011;23490;53.656;10.076;2022-09-09T10:50:18;3.80;;;1.23;;
37647;SDS011;23490;53.656;10.076;2022-09-09T10:53:02;4.78;;;0.90;;
37647;SDS011;23490;53.656;10.076;2022-09-09T10:55:53;3.35;;;1.20;;
37647;SDS011;23490;53.656;10.076;2022-09-09T10:58:30;2.65;;;1.33;;
37647;SDS011;23490;53.656;10.076;2022-09-09T11:01:03;3.92;;;1.25;;
37647;SDS011;23490;53.656;10.076;2022-09-09T11:03:39;3.58;;;1.20;;
37647;SDS011;23490;53.656;10.076;2022-09-09T11:06:06;2.45;;;1.35;;
37647;SDS011;23490;53.656;10.076;2022-09-09T11:08:38;2.40;;;1.30;;
37647;SDS011;23490;53.656;10.076;2022-09-09T11:18:50;4.13;;;1.10;;
37647;SDS011;23490;53.656;10.076;2022-09-09T11:21:28;4.63;;;1.30;;
37647;SDS011;23490;53.656;10.076;2022-09-09T11:24:00;3.22;;;1.10;;
37647;SDS011;23490;53.656;10.076;2022-09-09T11:26:37;3.25;;;1.00;;
37647;SDS011;23490;53.656;10.076;2022-09-09T11:29:23;3.13;;;1.10;;
37647;SDS011;23490;53.656;10.076;2022-09-09T11:40:23;3.38;;;1.20;;
37647;SDS011;23490;53.656;10.076;2022-09-09T11:45:39;3.17;;;1.02;;
37647;SDS011;23490;53.656;10.076;2022-09-09T11:48:22;4.13;;;1.10;;
37647;SDS011;23490;53.656;10.076;2022-09-09T11:50:57;3.70;;;1.48;;
37647;SDS011;23490;53.656;10.076;2022-09-09T11:53:25;3.08;;;1.15;;
37647;SDS011;23490;53.656;10.076;2022-09-09T11:56:04;4.18;;;0.90;;
37647;SDS011;23490;53.656;10.076;2022-09-09T11:58:42;2.13;;;1.02;;
37647;SDS011;23490;53.656;10.076;2022-09-09T12:04:04;3.15;;;1.10;;
37647;SDS011;23490;53.656;10.076;2022-09-09T12:06:48;3.55;;;1.40;;
37647;SDS011;23490;53.656;10.076;2022-09-09T12:09:19;3.00;;;1.00;;
37647;SDS011;23490;53.656;10.076;2022-09-09T12:11:50;2.47;;;0.98;;
37647;SDS011;23490;53.656;10.076;2022-09-09T12:17:20;3.72;;;1.20;;
37647;SDS011;23490;53.656;10.076;2022-09-09T12:19:48;5.00;;;1.73;;
37647;SDS011;23490;53.656;10.076;2022-09-09T12:30:22;4.15;;;1.58;;
37647;SDS011;23490;53.656;10.076;2022-09-09T12:33:01;3.78;;;1.60;;
37647;SDS011;23490;53.656;10.076;2022-09-09T12:35:34;2.40;;;0.90;;
37647;SDS011;23490;53.656;10.076;2022-09-09T12:38:03;2.92;;;1.10;;
37647;SDS011;23490;53.656;10.076;2022-09-09T12:40:35;5.72;;;1.20;;
37647;SDS011;23490;53.656;10.076;2022-09-09T12:43:01;3.88;;;1.00;;
37647;SDS011;23490;53.656;10.076;2022-09-09T12:45:31;3.00;;;1.00;;
37647;SDS011;23490;53.656;10.076;2022-09-09T12:48:02;3.42;;;1.35;;
37647;SDS011;23490;53.656;10.076;2022-09-09T12:50:32;6.50;;;1.88;;
37647;SDS011;23490;53.656;10.076;2022-09-09T12:53:04;3.55;;;1.42;;
37647;SDS011;23490;53.656;10.076;2022-09-09T12:55:38;5.85;;;1.73;;
37647;SDS011;23490;53.656;10.076;2022-09-09T12:58:04;7.43;;;1.65;;
37647;SDS011;23490;53.656;10.076;2022-09-09T13:00:31;3.80;;;1.20;;
37647;SDS011;23490;53.656;10.076;2022-09-09T13:02:59;2.28;;;1.48;;
37647;SDS011;23490;53.656;10.076;2022-09-09T13:05:28;2.97;;;1.08;;
37647;SDS011;23490;53.656;10.076;2022-09-09T13:08:01;2.38;;;1.30;;
37647;SDS011;23490;53.656;10.076;2022-09-09T13:10:28;3.17;;;1.52;;
37647;SDS011;23490;53.656;10.076;2022-09-09T13:12:55;2.30;;;1.30;;
37647;SDS011;23490;53.656;10.076;2022-09-09T13:15:23;2.53;;;1.23;;
37647;SDS011;23490;53.656;10.076;2022-09-09T13:17:56;3.30;;;1.60;;
37647;SDS011;23490;53.656;10.076;2022-09-09T13:20:26;4.13;;;1.65;;
37647;SDS011;23490;53.656;10.076;2022-09-09T13:22:53;2.45;;;1.33;;
37647;SDS011;23490;53.656;10.076;2022-09-09T13:25:21;5.55;;;1.67;;
37647;SDS011;23490;53.656;10.076;2022-09-09T13:30:31;4.45;;;1.55;;
37647;SDS011;23490;53.656;10.076;2022-09-09T13:33:01;3.15;;;1.58;;
37647;SDS011;23490;53.656;10.076;2022-09-09T13:35:54;4.03;;;1.50;;
37647;SDS011;23490;53.656;10.076;2022-09-09T13:38:29;4.05;;;1.73;;
37647;SDS011;23490;53.656;10.076;2022-09-09T13:43:28;4.47;;;1.77;;
37647;SDS011;23490;53.656;10.076;2022-09-09T13:46:28;3.33;;;1.45;;
37647;SDS011;23490;53.656;10.076;2022-09-09T13:51:40;2.85;;;1.42;;
37647;SDS011;23490;53.656;10.076;2022-09-09T13:54:11;3.67;;;1.35;;
37647;SDS011;23490;53.656;10.076;2022-09-09T13:56:38;4.00;;;1.70;;
37647;SDS011;23490;53.656;10.076;2022-09-09T13:59:05;4.97;;;1.98;;
37647;SDS011;23490;53.656;10.076;2022-09-09T14:01:35;4.82;;;1.85;;
37647;SDS011;23490;53.656;10.076;2022-09-09T14:04:01;5.53;;;2.30;;
37647;SDS011;23490;53.656;10.076;2022-09-09T14:06:26;6.93;;;3.30;;
37647;SDS011;23490;53.656;10.076;2022-09-09T14:08:52;6.60;;;2.83;;
37647;SDS011;23490;53.656;10.076;2022-09-09T14:11:19;9.77;;;3.00;;
37647;SDS011;23490;53.656;10.076;2022-09-09T14:13:46;8.43;;;3.05;;
37647;SDS011;23490;53.656;10.076;2022-09-09T14:16:12;6.05;;;2.60;;
37647;SDS011;23490;53.656;10.076;2022-09-09T14:18:37;6.65;;;2.63;;
37647;SDS011;23490;53.656;10.076;2022-09-09T14:21:03;7.88;;;3.00;;
37647;SDS011;23490;53.656;10.076;2022-09-09T14:23:29;5.05;;;2.85;;
37647;SDS011;23490;53.656;10.076;2022-09-09T14:25:54;5.25;;;2.83;;
37647;SDS011;23490;53.656;10.076;2022-09-09T14:28:20;6.85;;;3.05;;
37647;SDS011;23490;53.656;10.076;2022-09-09T14:30:45;9.40;;;3.67;;
37647;SDS011;23490;53.656;10.076;2022-09-09T14:33:12;7.82;;;3.35;;
37647;SDS011;23490;53.656;10.076;2022-09-09T14:35:38;10.15;;;3.80;;
37647;SDS011;23490;53.656;10.076;2022-09-09T14:38:05;9.50;;;3.65;;
37647;SDS011;23490;53.656;10.076;2022-09-09T14:40:31;8.77;;;3.75;;
37647;SDS011;23490;53.656;10.076;2022-09-09T14:42:59;8.77;;;3.72;;
37647;SDS011;23490;53.656;10.076;2022-09-09T14:45:25;6.38;;;3.05;;
37647;SDS011;23490;53.656;10.076;2022-09-09T14:47:51;6.82;;;3.20;;
37647;SDS011;23490;53.656;10.076;2022-09-09T14:50:18;5.63;;;2.90;;
37647;SDS011;23490;53.656;10.076;2022-09-09T14:52:44;7.38;;;3.78;;
37647;SDS011;23490;53.656;10.076;2022-09-09T14:55:09;6.65;;;3.10;;
37647;SDS011;23490;53.656;10.076;2022-09-09T14:57:34;7.03;;;3.33;;
37647;SDS011;23490;53.656;10.076;2022-09-09T15:00:02;5.55;;;2.40;;
37647;SDS011;23490;53.656;10.076;2022-09-09T15:02:28;8.15;;;2.70;;
37647;SDS011;23490;53.656;10.076;2022-09-09T15:04:55;6.70;;;2.90;;
37647;SDS011;23490;53.656;10.076;2022-09-09T15:07:23;5.88;;;2.65;;
37647;SDS011;23490;53.656;10.076;2022-09-09T15:09:49;3.67;;;2.08;;
37647;SDS011;23490;53.656;10.076;2022-09-09T15:12:14;4.65;;;2.20;;
37647;SDS011;23490;53.656;10.076;2022-09-09T15:14:40;3.67;;;1.98;;
37647;SDS011;23490;53.656;10.076;2022-09-09T15:17:05;4.50;;;2.10;;
37647;SDS011;23490;53.656;10.076;2022-09-09T15:19:30;5.63;;;2.70;;
37647;SDS011;23490;53.656;10.076;2022-09-09T15:21:56;6.43;;;2.35;;
37647;SDS011;23490;53.656;10.076;2022-09-09T15:24:22;6.15;;;2.58;;
37647;SDS011;23490;53.656;10.076;2022-09-09T15:26:48;7.65;;;2.38;;
37647;SDS011;23490;53.656;10.076;2022-09-09T15:29:13;4.78;;;2.20;;
37647;SDS011;23490;53.656;10.076;2022-09-09T15:31:38;7.57;;;2.60;;
37647;SDS011;23490;53.656;10.076;2022-09-09T15:34:05;4.32;;;1.90;;
37647;SDS011;23490;53.656;10.076;2022-09-09T15:36:38;5.18;;;1.92;;
37647;SDS011;23490;53.656;10.076;2022-09-09T15:39:06;4.32;;;1.98;;
37647;SDS011;23490;53.656;10.076;2022-09-09T15:41:33;4.32;;;2.00;;
37647;SDS011;23490;53.656;10.076;2022-09-09T15:43:59;2.50;;;1.33;;
37647;SDS011;23490;53.656;10.076;2022-09-09T15:48:58;4.63;;;1.50;;
37647;SDS011;23490;53.656;10.076;2022-09-09T15:51:36;4.47;;;1.85;;
37647;SDS011;23490;53.656;10.076;2022-09-09T15:54:03;3.42;;;1.63;;
37647;SDS011;23490;53.656;10.076;2022-09-09T15:56:29;4.57;;;1.50;;
37647;SDS011;23490;53.656;10.076;2022-09-09T15:58:55;5.75;;;2.03;;
37647;SDS011;23490;53.656;10.076;2022-09-09T16:01:23;3.40;;;1.10;;
37647;SDS011;23490;53.656;10.076;2022-09-09T16:03:48;3.00;;;1.30;;
37647;SDS011;23490;53.656;10.076;2022-09-09T16:06:16;3.80;;;1.40;;
37647;SDS011;23490;53.656;10.076;2022-09-09T16:08:44;3.75;;;1.20;;
37647;SDS011;23490;53.656;10.076;2022-09-09T16:11:15;2.80;;;1.40;;
37647;SDS011;23490;53.656;10.076;2022-09-09T16:13:42;17.17;;;11.52;;
37647;SDS011;23490;53.656;10.076;2022-09-09T16:16:10;5.68;;;3.00;;
37647;SDS011;23490;53.656;10.076;2022-09-09T16:18:38;4.75;;;1.83;;
37647;SDS011;23490;53.656;10.076;2022-09-09T16:21:13;6.97;;;1.92;;
37647;SDS011;23490;53.656;10.076;2022-09-09T16:23:41;4.35;;;1.48;;
37647;SDS011;23490;53.656;10.076;2022-09-09T16:26:08;5.65;;;2.15;;
37647;SDS011;23490;53.656;10.076;2022-09-09T16:28:36;5.60;;;2.17;;
37647;SDS011;23490;53.656;10.076;2022-09-09T16:31:04;4.97;;;2.00;;
37647;SDS011;23490;53.656;10.076;2022-09-09T16:33:30;4.28;;;1.70;;
37647;SDS011;23490;53.656;10.076;2022-09-09T16:35:55;4.03;;;2.10;;
37647;SDS011;23490;53.656;10.076;2022-09-09T16:38:21;2.70;;;1.60;;
37647;SDS011;23490;53.656;10.076;2022-09-09T16:40:46;4.40;;;2.00;;
37647;SDS011;23490;53.656;10.076;2022-09-09T16:43:13;4.40;;;1.95;;